This is the latest recevied weather packets stored in our database for station/object HS5NMF. If no packets are shown the sender has not sent any weather packets the latest 10 day(s).
| Time | Temp. | Humidity | Pressure | Rain* | Wind** | Luminosity | Snow |
|---|---|---|---|---|---|---|---|
| 1778165813 | 28.89° C | 96% | 979 hPa | - | - | 0 W/m² | - |
| 1778165489 | 28.89° C | 97% | 979 hPa | - | - | 0 W/m² | - |
| 1778165165 | 28.33° C | 98% | 978 hPa | - | - | 0 W/m² | - |
| 1778164841 | 28.89° C | 97% | 978 hPa | - | - | 0 W/m² | - |
| 1778164518 | 28.89° C | 96% | 978 hPa | - | - | 0 W/m² | - |
| 1778164194 | 28.89° C | 96% | 978 hPa | - | - | 0 W/m² | - |
| 1778163870 | 28.89° C | 95% | 978 hPa | - | - | 0 W/m² | - |
| 1778163546 | 29.44° C | 92% | 978 hPa | - | - | 0 W/m² | - |
| 1778163221 | 28.89° C | 92% | 977 hPa | - | - | 0 W/m² | - |
| 1778162898 | 29.44° C | 91% | 977 hPa | - | - | 0 W/m² | - |
| 1778162574 | 29.44° C | 89% | 977 hPa | - | - | 0 W/m² | - |
| 1778162250 | 29.44° C | 88% | 977 hPa | - | - | 0 W/m² | - |
| 1778161927 | 30° C | 85% | 977 hPa | - | - | 0 W/m² | - |
| 1778161603 | 29.44° C | 86% | 977 hPa | - | - | 0 W/m² | - |
| 1778161281 | 30° C | 84% | 977 hPa | - | - | 0 W/m² | - |
| 1778160958 | 29.44° C | 86% | 977 hPa | - | - | 0 W/m² | - |
| 1778160637 | 29.44° C | 85% | 976 hPa | - | - | 0 W/m² | - |
| 1778160312 | 30° C | 85% | 976 hPa | - | - | 0 W/m² | - |
| 1778159989 | 30° C | 87% | 976 hPa | - | - | 0 W/m² | - |
| 1778159763 | 29.44° C | 89% | 976 hPa | - | - | 0 W/m² | - |
| 1778159664 | 29.44° C | 89% | 976 hPa | - | - | 0 W/m² | - |
| 1778159340 | 29.44° C | 89% | 976 hPa | - | - | 0 W/m² | - |
| 1778159016 | 30° C | 85% | 976 hPa | - | - | 0 W/m² | - |
| 1778158692 | 30° C | 85% | 976 hPa | - | - | 0 W/m² | - |
| 1778158369 | 30° C | 86% | 976 hPa | - | - | 0 W/m² | - |
* Rain since midnight (hover to see other rain measurements)
** Current wind speed in m/s (hover to see current wind gust speed)